createdAt,value
2017-11-14T00:02:07.753Z,6.05
2017-11-14T00:04:35.293Z,5.91
2017-11-14T00:07:03.264Z,5.91
2017-11-14T00:09:30.823Z,5.88
2017-11-14T00:11:58.378Z,5.95
2017-11-14T00:14:25.954Z,5.91
2017-11-14T00:16:53.467Z,5.96
2017-11-14T00:19:20.987Z,5.83
2017-11-14T00:21:48.559Z,5.81
2017-11-14T00:24:16.175Z,5.78
2017-11-14T00:26:43.732Z,5.80
2017-11-14T00:29:11.475Z,5.71
2017-11-14T00:31:38.997Z,5.67
2017-11-14T00:34:06.519Z,5.67
2017-11-14T00:36:34.108Z,5.65
2017-11-14T00:39:01.631Z,5.66
2017-11-14T00:41:29.192Z,5.60
2017-11-14T00:43:56.953Z,5.56
2017-11-14T00:46:24.471Z,5.42
2017-11-14T00:48:51.987Z,5.28
2017-11-14T00:51:19.735Z,5.29
2017-11-14T00:53:47.294Z,5.27
2017-11-14T00:56:14.852Z,5.30
2017-11-14T01:01:09.457Z,5.37
2017-11-14T01:03:37.032Z,5.28
2017-11-14T01:06:04.611Z,5.23
2017-11-14T01:08:32.130Z,5.27
2017-11-14T01:10:59.649Z,5.30
2017-11-14T01:13:27.355Z,5.38
2017-11-14T01:15:54.871Z,5.50
2017-11-14T01:18:22.409Z,5.59
2017-11-14T01:20:49.994Z,5.33
2017-11-14T01:23:17.515Z,5.22
2017-11-14T01:25:45.027Z,5.26
2017-11-14T01:28:12.709Z,5.13
2017-11-14T01:30:40.269Z,5.03
2017-11-14T01:33:07.829Z,4.82
2017-11-14T01:35:35.572Z,4.94
2017-11-14T01:38:03.092Z,5.10
2017-11-14T01:40:30.610Z,4.98
2017-11-14T01:42:58.183Z,5.21
2017-11-14T01:45:25.728Z,5.17
2017-11-14T01:47:53.285Z,5.02
2017-11-14T01:50:20.844Z,4.88
2017-11-14T01:55:31.615Z,4.91
2017-11-14T01:57:59.139Z,5.05
2017-11-14T02:00:38.729Z,4.93
2017-11-14T02:03:06.246Z,4.77
2017-11-14T02:05:33.768Z,4.89
2017-11-14T02:08:01.713Z,5.01
2017-11-14T02:10:29.224Z,5.16
2017-11-14T02:12:56.748Z,5.19
2017-11-14T02:15:24.493Z,5.18
2017-11-14T02:17:52.054Z,5.31
2017-11-14T02:20:19.656Z,5.39
2017-11-14T02:22:47.214Z,5.44
2017-11-14T02:25:14.731Z,5.67
2017-11-14T02:30:09.097Z,5.44
2017-11-14T02:32:36.611Z,5.62
2017-11-14T02:35:04.131Z,5.75
2017-11-14T02:37:31.811Z,5.65
2017-11-14T02:39:59.370Z,5.83
2017-11-14T02:42:26.929Z,5.92
2017-11-14T02:44:54.540Z,5.92
2017-11-14T02:47:22.078Z,5.95
2017-11-14T02:49:49.595Z,6.03
2017-11-14T02:52:17.160Z,6.13
2017-11-14T02:54:44.680Z,6.05
2017-11-14T02:57:12.196Z,6.24
2017-11-14T02:59:39.841Z,6.17
2017-11-14T03:02:07.357Z,6.27
2017-11-14T03:04:34.905Z,6.12
2017-11-14T03:07:02.619Z,5.87
2017-11-14T03:09:30.135Z,6.07
2017-11-14T03:11:57.652Z,5.86
2017-11-14T03:14:25.216Z,5.78
2017-11-14T03:16:52.958Z,5.87
2017-11-14T03:19:20.520Z,6.01
2017-11-14T03:21:48.261Z,5.84
2017-11-14T03:24:15.810Z,5.99
2017-11-14T03:26:43.342Z,6.17
2017-11-14T03:29:11.067Z,6.09
2017-11-14T03:31:38.630Z,6.33
2017-11-14T03:34:06.186Z,6.30
2017-11-14T03:36:33.942Z,6.27
2017-11-14T03:39:01.502Z,6.19
2017-11-14T03:41:29.470Z,6.51
2017-11-14T03:43:57.281Z,6.48
2017-11-14T03:46:24.820Z,6.65
2017-11-14T03:48:52.353Z,6.75
2017-11-14T03:51:20.117Z,6.78
2017-11-14T03:53:47.635Z,6.67
2017-11-14T03:56:15.155Z,6.48
2017-11-14T03:58:42.896Z,6.58
2017-11-14T04:01:10.456Z,6.21
2017-11-14T04:03:37.975Z,6.61
2017-11-14T04:06:05.911Z,6.65
2017-11-14T04:08:33.441Z,6.57
2017-11-14T04:11:00.999Z,6.32
2017-11-14T04:13:28.756Z,6.28
2017-11-14T04:15:56.276Z,6.57
2017-11-14T04:18:23.796Z,6.53
2017-11-14T04:20:51.488Z,6.51
2017-11-14T04:23:19.009Z,6.57
2017-11-14T04:25:46.565Z,6.48
2017-11-14T04:28:14.300Z,6.37
2017-11-14T04:30:41.831Z,6.30
2017-11-14T04:33:09.353Z,6.49
2017-11-14T04:35:37.101Z,6.70
2017-11-14T04:38:04.606Z,6.61
2017-11-14T04:40:32.151Z,6.79
2017-11-14T04:42:59.985Z,6.94
2017-11-14T04:45:27.543Z,6.78
2017-11-14T04:47:55.103Z,6.75
2017-11-14T04:50:22.840Z,6.92
2017-11-14T04:52:50.360Z,6.86
2017-11-14T04:55:18.393Z,6.83
2017-11-14T04:57:46.260Z,6.93
2017-11-14T05:00:13.775Z,6.87
2017-11-14T05:02:41.291Z,6.79
2017-11-14T05:05:08.844Z,6.96
2017-11-14T05:07:36.362Z,6.87
2017-11-14T05:10:03.873Z,6.95
2017-11-14T05:12:31.463Z,7.05
2017-11-14T05:14:58.983Z,7.03
2017-11-14T05:17:26.501Z,6.82
2017-11-14T05:19:54.403Z,6.82
2017-11-14T05:22:21.960Z,6.96
2017-11-14T05:24:49.542Z,6.93
2017-11-14T05:27:17.276Z,6.56
2017-11-14T05:29:44.789Z,6.93
2017-11-14T05:32:12.320Z,6.91
2017-11-14T05:34:40.056Z,7.09
2017-11-14T05:37:07.574Z,7.10
2017-11-14T05:39:35.090Z,7.09
2017-11-14T05:42:02.837Z,7.09
2017-11-14T05:44:30.351Z,6.93
2017-11-14T05:46:57.866Z,6.99
2017-11-14T05:49:25.717Z,7.01
2017-11-14T05:51:53.279Z,6.95
2017-11-14T05:54:20.792Z,6.84
2017-11-14T05:56:48.599Z,6.98
2017-11-14T05:59:16.158Z,7.01
2017-11-14T06:01:43.717Z,6.95
2017-11-14T06:04:11.294Z,7.11
2017-11-14T06:06:38.852Z,7.13
2017-11-14T06:09:06.370Z,7.24
2017-11-14T06:11:34.272Z,7.03
2017-11-14T06:14:01.789Z,7.03
2017-11-14T06:16:29.312Z,7.10
2017-11-14T06:18:56.872Z,7.16
2017-11-14T06:21:24.387Z,7.11
2017-11-14T06:23:51.895Z,6.93
2017-11-14T06:26:19.513Z,6.97
2017-11-14T06:28:47.028Z,6.88
2017-11-14T06:31:14.836Z,7.11
2017-11-14T06:33:42.395Z,7.24
2017-11-14T06:36:09.916Z,7.13
2017-11-14T06:38:37.444Z,7.17
2017-11-14T06:41:05.255Z,7.11
2017-11-14T06:43:32.836Z,7.22
2017-11-14T06:46:00.355Z,7.16
2017-11-14T06:48:27.926Z,7.01
2017-11-14T06:50:55.435Z,7.36
2017-11-14T06:53:22.951Z,7.30
2017-11-14T06:55:50.522Z,7.22
2017-11-14T06:58:18.047Z,7.34
2017-11-14T07:00:45.574Z,7.34
2017-11-14T07:03:13.308Z,7.36
2017-11-14T07:05:40.819Z,7.52
2017-11-14T07:08:08.335Z,7.52
2017-11-14T07:10:35.883Z,7.46
2017-11-14T07:13:04.159Z,7.56
2017-11-14T07:15:31.720Z,7.18
2017-11-14T07:17:59.456Z,7.36
2017-11-14T07:20:26.976Z,7.56
2017-11-14T07:22:54.488Z,7.37
2017-11-14T07:25:23.184Z,7.18
2017-11-14T07:27:50.746Z,6.96
2017-11-14T07:30:18.302Z,7.25
2017-11-14T07:32:45.875Z,7.24
2017-11-14T07:35:13.421Z,7.47
2017-11-14T07:37:40.943Z,7.59
2017-11-14T07:40:08.844Z,7.55
2017-11-14T07:42:36.356Z,7.44
2017-11-14T07:45:03.872Z,7.28
2017-11-14T07:47:31.503Z,7.44
2017-11-14T07:49:59.023Z,7.23
2017-11-14T07:52:26.548Z,7.09
2017-11-14T07:54:54.104Z,7.30
2017-11-14T07:57:21.657Z,7.33
2017-11-14T07:59:49.258Z,7.42
2017-11-14T08:02:16.809Z,7.70
2017-11-14T08:04:44.332Z,7.83
2017-11-14T08:07:11.892Z,8.15
2017-11-14T08:09:40.372Z,8.49
2017-11-14T08:12:07.931Z,8.64
2017-11-14T08:14:35.497Z,8.92
2017-11-14T08:17:03.967Z,9.17
2017-11-14T08:19:31.576Z,9.21
2017-11-14T08:21:59.096Z,9.15
2017-11-14T08:24:26.852Z,9.11
2017-11-14T08:26:54.419Z,8.64
2017-11-14T08:29:21.948Z,8.54
2017-11-14T08:31:49.530Z,8.21
2017-11-14T08:34:17.296Z,8.06
2017-11-14T08:36:44.853Z,7.72
2017-11-14T08:39:13.138Z,7.67
2017-11-14T08:41:40.689Z,8.24
2017-11-14T08:44:10.911Z,8.26
2017-11-14T08:46:38.472Z,8.66
2017-11-14T08:49:06.027Z,8.81
2017-11-14T08:51:33.535Z,8.67
2017-11-14T08:54:01.540Z,8.77
2017-11-14T08:56:29.051Z,9.11
2017-11-14T08:58:56.572Z,9.38
2017-11-14T09:01:24.336Z,9.33
2017-11-14T09:03:51.896Z,9.63
2017-11-14T09:06:19.471Z,10.29
2017-11-14T09:08:47.064Z,10.76
2017-11-14T09:11:14.600Z,10.46
2017-11-14T09:13:42.868Z,10.24
2017-11-14T09:16:10.536Z,10.07
2017-11-14T09:18:38.051Z,9.86
2017-11-14T09:21:05.664Z,9.85
2017-11-14T09:23:33.336Z,9.64
2017-11-14T09:26:00.848Z,9.92
2017-11-14T09:28:28.406Z,9.74
2017-11-14T09:30:56.153Z,9.47
2017-11-14T09:33:23.667Z,9.14
2017-11-14T09:35:51.192Z,9.27
2017-11-14T09:38:18.819Z,9.47
2017-11-14T09:40:46.347Z,9.27
2017-11-14T09:43:13.864Z,9.54
2017-11-14T09:45:41.713Z,10.11
2017-11-14T09:48:09.287Z,10.34
2017-11-14T09:50:36.846Z,11.10
2017-11-14T09:53:04.580Z,11.47
2017-11-14T09:55:32.104Z,12.43
2017-11-14T09:57:59.631Z,13.13
2017-11-14T10:00:27.390Z,12.70
2017-11-14T10:02:54.951Z,12.15
2017-11-14T10:05:22.594Z,12.33
2017-11-14T10:07:50.354Z,12.18
2017-11-14T10:10:17.868Z,12.23
2017-11-14T10:12:45.404Z,12.59
2017-11-14T10:15:12.959Z,12.52
2017-11-14T10:17:40.488Z,12.61
2017-11-14T10:20:08.015Z,12.36
2017-11-14T10:22:35.630Z,11.31
2017-11-14T10:25:03.156Z,11.39
2017-11-14T10:27:30.718Z,10.87
2017-11-14T10:29:58.406Z,10.32
2017-11-14T10:32:25.935Z,10.34
2017-11-14T10:34:53.456Z,10.32
2017-11-14T10:37:21.163Z,10.62
2017-11-14T10:39:49.376Z,10.62
2017-11-14T10:42:16.900Z,11.58
2017-11-14T10:44:44.662Z,14.26
2017-11-14T10:47:12.176Z,15.64
2017-11-14T10:49:39.707Z,15.52
2017-11-14T10:52:07.411Z,15.23
2017-11-14T10:54:34.927Z,18.12
2017-11-14T10:57:02.478Z,20.45
2017-11-14T10:59:30.195Z,16.76
2017-11-14T11:01:57.710Z,14.22
2017-11-14T11:04:25.296Z,13.65
2017-11-14T11:06:52.847Z,13.10
2017-11-14T11:09:20.375Z,12.82
2017-11-14T11:11:47.939Z,14.08
2017-11-14T11:14:15.487Z,15.88
2017-11-14T11:16:43.004Z,18.43
2017-11-14T11:19:10.524Z,21.51
2017-11-14T11:21:38.455Z,23.85
2017-11-14T11:24:06.039Z,27.05
2017-11-14T11:26:33.688Z,27.61
2017-11-14T11:29:01.462Z,28.30
2017-11-14T11:31:29.021Z,28.10
2017-11-14T11:33:56.582Z,24.95
2017-11-14T11:36:24.143Z,24.41
2017-11-14T11:38:51.699Z,24.76
2017-11-14T11:41:19.258Z,23.63
2017-11-14T11:43:47.123Z,21.31
2017-11-14T11:46:14.651Z,17.49
2017-11-14T11:48:42.172Z,15.59
2017-11-14T11:51:09.905Z,15.47
2017-11-14T11:53:37.464Z,15.11
2017-11-14T11:56:05.035Z,14.34
2017-11-14T11:58:32.784Z,13.53
2017-11-14T12:01:00.345Z,13.52
2017-11-14T12:03:27.918Z,15.80
2017-11-14T12:05:55.567Z,15.25
2017-11-14T12:08:23.127Z,14.63
2017-11-14T12:10:50.683Z,14.82
2017-11-14T12:13:18.445Z,14.65
2017-11-14T12:15:46.006Z,14.44
2017-11-14T12:18:13.523Z,14.22
2017-11-14T12:20:41.461Z,13.68
2017-11-14T12:23:08.980Z,12.85
2017-11-14T12:25:36.549Z,12.36
2017-11-14T12:28:04.320Z,12.78
2017-11-14T12:30:31.863Z,13.03
2017-11-14T12:32:59.432Z,13.26
2017-11-14T12:35:27.296Z,13.32
2017-11-14T12:37:54.857Z,13.08
2017-11-14T12:40:22.375Z,12.32
2017-11-14T12:42:50.179Z,12.26
2017-11-14T12:45:17.739Z,11.77
2017-11-14T12:47:45.308Z,11.82
2017-11-14T12:50:12.864Z,12.10
2017-11-14T12:52:40.415Z,12.35
2017-11-14T12:55:07.975Z,12.66
2017-11-14T12:57:35.738Z,13.06
2017-11-14T13:00:03.297Z,13.12
2017-11-14T13:02:30.855Z,12.43
2017-11-14T13:04:58.620Z,12.07
2017-11-14T13:07:26.140Z,12.10
2017-11-14T13:09:53.658Z,12.62
2017-11-14T13:12:22.014Z,12.80
2017-11-14T13:14:49.575Z,12.75
2017-11-14T13:17:17.105Z,12.17
2017-11-14T13:19:44.921Z,12.36
2017-11-14T13:22:12.455Z,12.60
2017-11-14T13:24:40.013Z,12.00
2017-11-14T13:27:07.784Z,12.48
2017-11-14T13:29:35.338Z,12.90
2017-11-14T13:32:03.003Z,12.82
2017-11-14T13:34:31.323Z,12.76
2017-11-14T13:36:58.849Z,12.10
2017-11-14T13:39:26.396Z,11.70
2017-11-14T13:41:54.450Z,11.72
2017-11-14T13:44:21.974Z,11.96
2017-11-14T13:46:49.499Z,11.32
2017-11-14T13:49:17.061Z,11.22
2017-11-14T13:51:44.578Z,10.85
2017-11-14T13:54:12.114Z,10.85
2017-11-14T13:56:39.716Z,10.49
2017-11-14T13:59:07.254Z,10.09
2017-11-14T14:01:34.785Z,10.30
2017-11-14T14:04:02.473Z,10.37
2017-11-14T14:06:30.362Z,10.00
2017-11-14T14:08:57.884Z,9.58
2017-11-14T14:11:25.479Z,9.85
2017-11-14T14:13:53.040Z,9.83
2017-11-14T14:16:21.427Z,10.18
2017-11-14T14:18:48.981Z,10.13
2017-11-14T14:21:16.553Z,10.21
2017-11-14T14:23:44.076Z,10.16
2017-11-14T14:26:11.857Z,10.21
2017-11-14T14:28:39.723Z,9.75
2017-11-14T14:31:07.283Z,10.01
2017-11-14T14:33:34.844Z,9.92
2017-11-14T14:36:02.503Z,9.83
2017-11-14T14:41:21.277Z,9.86
2017-11-14T14:43:48.834Z,9.88
2017-11-14T14:46:16.394Z,10.00
2017-11-14T14:48:43.953Z,9.69
2017-11-14T14:51:11.527Z,9.78
2017-11-14T14:53:39.086Z,9.79
2017-11-14T14:56:06.942Z,9.55
2017-11-14T14:58:34.497Z,9.62
2017-11-14T15:01:02.064Z,9.67
2017-11-14T15:03:29.717Z,9.66
2017-11-14T15:05:57.232Z,9.52
2017-11-14T15:08:24.755Z,9.45
2017-11-14T15:10:52.503Z,9.43
2017-11-14T15:13:20.058Z,9.54
2017-11-14T15:15:47.614Z,9.43
2017-11-14T15:18:15.583Z,9.42
2017-11-14T15:20:43.143Z,9.27
2017-11-14T15:23:10.671Z,9.21
2017-11-14T15:25:39.132Z,9.29
2017-11-14T15:28:06.707Z,9.28
2017-11-14T15:30:34.316Z,9.09
2017-11-14T15:33:02.268Z,9.00
2017-11-14T15:35:29.807Z,9.00
2017-11-14T15:37:57.591Z,8.98
2017-11-14T15:40:25.268Z,8.94
2017-11-14T15:42:52.811Z,8.83
2017-11-14T15:45:20.375Z,8.77
2017-11-14T15:47:48.311Z,8.68
2017-11-14T15:50:15.839Z,8.54
2017-11-14T15:52:43.359Z,8.51
2017-11-14T15:55:12.042Z,8.49
2017-11-14T15:57:39.714Z,8.38
2017-11-14T16:00:07.307Z,8.28
2017-11-14T16:02:34.957Z,8.18
2017-11-14T16:05:02.506Z,8.15
2017-11-14T16:07:30.236Z,8.09
2017-11-14T16:09:58.117Z,7.96
2017-11-14T16:12:25.654Z,7.90
2017-11-14T16:14:53.230Z,7.94
2017-11-14T16:17:20.795Z,7.85
2017-11-14T16:19:48.556Z,7.70
2017-11-14T16:22:16.319Z,7.61
2017-11-14T16:24:44.081Z,7.67
2017-11-14T16:27:11.663Z,7.53
2017-11-14T16:29:39.212Z,7.58
2017-11-14T16:32:07.820Z,7.52
2017-11-14T16:34:35.655Z,7.30
2017-11-14T16:37:03.436Z,7.54
2017-11-14T16:39:31.586Z,7.41
2017-11-14T16:41:59.370Z,7.41
2017-11-14T16:44:27.108Z,7.32
2017-11-14T16:46:54.998Z,7.33
2017-11-14T16:49:22.762Z,7.36
2017-11-14T16:51:50.507Z,7.24
2017-11-14T16:54:18.993Z,7.22
2017-11-14T16:56:46.739Z,7.15
2017-11-14T16:59:14.260Z,7.09
2017-11-14T17:01:42.074Z,7.08
2017-11-14T17:04:09.692Z,7.05
2017-11-14T17:06:37.470Z,7.03
2017-11-14T17:09:05.674Z,6.95
2017-11-14T17:11:33.436Z,6.93
2017-11-14T17:14:01.303Z,6.80
2017-11-14T17:16:29.272Z,6.93
2017-11-14T17:18:57.049Z,6.86
2017-11-14T17:21:24.700Z,6.54
2017-11-14T17:23:52.871Z,6.27
2017-11-14T17:26:21.604Z,6.25
2017-11-14T17:28:49.338Z,6.51
2017-11-14T17:31:17.315Z,6.59
2017-11-14T17:33:45.333Z,6.49
2017-11-14T17:36:13.228Z,6.40
2017-11-14T17:38:53.297Z,6.24
2017-11-14T17:41:21.963Z,6.34
2017-11-14T17:43:49.831Z,6.38
2017-11-14T17:46:17.584Z,6.38
2017-11-14T17:48:45.502Z,6.23
2017-11-14T17:51:13.124Z,6.25
2017-11-14T17:53:40.988Z,6.25
2017-11-14T17:56:10.807Z,6.25
2017-11-14T17:58:39.076Z,6.21
2017-11-14T18:01:07.559Z,6.18
2017-11-14T18:03:35.543Z,5.98
2017-11-14T18:06:03.369Z,5.66
2017-11-14T18:08:31.176Z,5.74
2017-11-14T18:10:59.022Z,5.75
2017-11-14T18:13:26.972Z,5.73
2017-11-14T18:15:55.179Z,5.62
2017-11-14T18:18:23.440Z,5.42
2017-11-14T18:20:51.305Z,5.32
2017-11-14T18:23:19.377Z,5.35
2017-11-14T18:25:47.154Z,5.37
2017-11-14T18:28:14.802Z,5.22
2017-11-14T18:30:42.772Z,5.13
2017-11-14T18:33:10.638Z,5.34
2017-11-14T18:35:38.590Z,5.25
2017-11-14T18:38:06.574Z,5.34
2017-11-14T18:40:35.327Z,4.95
2017-11-14T18:43:03.795Z,5.16
2017-11-14T18:45:32.868Z,5.35
2017-11-14T18:48:00.916Z,5.40
2017-11-14T18:50:30.757Z,5.17
2017-11-14T18:52:58.690Z,5.26
2017-11-14T18:55:26.256Z,5.27
2017-11-14T18:57:53.811Z,5.21
2017-11-14T19:00:21.680Z,5.29
2017-11-14T19:02:49.281Z,4.94
2017-11-14T19:05:17.216Z,5.03
2017-11-14T19:07:45.442Z,4.95
2017-11-14T19:10:13.137Z,4.92
2017-11-14T19:12:40.797Z,5.02
2017-11-14T19:15:08.769Z,4.96
2017-11-14T19:17:36.530Z,5.18
2017-11-14T19:20:04.402Z,4.85
2017-11-14T19:22:32.358Z,4.78
2017-11-14T19:25:00.049Z,4.59
2017-11-14T19:27:27.840Z,4.73
2017-11-14T19:29:56.038Z,4.75
2017-11-14T19:32:23.830Z,4.66
2017-11-14T19:34:51.623Z,4.45
2017-11-14T19:37:19.777Z,4.50
2017-11-14T19:39:47.635Z,4.60
2017-11-14T19:42:15.568Z,4.55
2017-11-14T19:44:43.368Z,4.76
2017-11-14T19:47:11.069Z,4.66
2017-11-14T19:49:40.286Z,4.79
2017-11-14T19:52:08.309Z,4.70
2017-11-14T19:54:36.051Z,4.58
2017-11-14T19:57:03.735Z,4.57
2017-11-14T19:59:31.897Z,4.65
2017-11-14T20:01:59.763Z,4.46
2017-11-14T20:06:55.700Z,4.44
2017-11-14T20:09:23.793Z,4.02
2017-11-14T20:11:51.417Z,4.31
2017-11-14T20:14:20.078Z,4.52
2017-11-14T20:16:47.964Z,4.32
2017-11-14T20:19:15.977Z,4.05
2017-11-14T20:21:45.675Z,3.91
2017-11-14T20:24:13.442Z,4.17
2017-11-14T20:26:41.514Z,4.07
2017-11-14T20:29:10.207Z,3.77
2017-11-14T20:31:38.168Z,3.58
2017-11-14T20:34:07.200Z,3.58
2017-11-14T20:36:35.300Z,3.87
2017-11-14T20:39:03.287Z,3.92
2017-11-14T20:41:30.950Z,4.10
2017-11-14T20:43:58.939Z,4.11
2017-11-14T20:46:27.741Z,3.90
2017-11-14T20:48:55.693Z,3.80
2017-11-14T20:51:23.848Z,3.88
2017-11-14T20:53:51.715Z,3.84
2017-11-14T20:56:19.459Z,3.88
2017-11-14T20:58:47.344Z,3.70
2017-11-14T21:01:15.213Z,3.98
2017-11-14T21:03:42.872Z,4.00
2017-11-14T21:06:11.780Z,3.81
2017-11-14T21:08:39.643Z,3.92
2017-11-14T21:11:07.888Z,3.82
2017-11-14T21:13:36.898Z,3.90
2017-11-14T21:16:04.660Z,3.68
2017-11-14T21:18:32.527Z,3.85
2017-11-14T21:21:00.701Z,3.82
2017-11-14T21:23:28.672Z,4.09
2017-11-14T21:25:56.555Z,4.03
2017-11-14T21:28:24.709Z,3.94
2017-11-14T21:30:52.298Z,3.85
2017-11-14T21:33:19.864Z,4.04
2017-11-14T21:35:47.615Z,3.84
2017-11-14T21:38:15.155Z,3.63
2017-11-14T21:40:42.687Z,3.64
2017-11-14T21:43:10.269Z,3.97
2017-11-14T21:45:38.442Z,3.87
2017-11-14T21:48:06.002Z,3.69
2017-11-14T21:50:34.072Z,3.92
2017-11-14T21:53:01.667Z,3.82
2017-11-14T21:55:29.219Z,3.68
2017-11-14T21:57:58.022Z,3.79
2017-11-14T22:00:25.641Z,3.64
2017-11-14T22:02:53.199Z,3.48
2017-11-14T22:05:20.947Z,3.68
2017-11-14T22:07:48.457Z,3.73
2017-11-14T22:10:15.978Z,3.68
2017-11-14T22:12:43.744Z,3.65
2017-11-14T22:15:13.438Z,3.68
2017-11-14T22:17:41.127Z,3.53
2017-11-14T22:20:08.878Z,3.52
2017-11-14T22:22:36.437Z,3.87
2017-11-14T22:25:03.952Z,3.88
2017-11-14T22:27:31.874Z,4.06
2017-11-14T22:29:59.408Z,4.08
2017-11-14T22:32:26.923Z,3.95
2017-11-14T22:34:54.499Z,3.96
2017-11-14T22:37:22.010Z,4.05
2017-11-14T22:39:49.559Z,4.22
2017-11-14T22:42:17.134Z,4.53
2017-11-14T22:44:44.674Z,4.54
2017-11-14T22:47:12.233Z,4.73
2017-11-14T22:49:39.998Z,4.46
2017-11-14T22:52:07.555Z,4.06
2017-11-14T22:54:35.073Z,4.33
2017-11-14T22:57:02.645Z,4.49
2017-11-14T22:59:30.159Z,4.40
2017-11-14T23:01:58.611Z,4.50
2017-11-14T23:04:26.195Z,4.22
2017-11-14T23:06:53.754Z,4.13
2017-11-14T23:09:21.289Z,4.39
2017-11-14T23:11:49.052Z,4.79
2017-11-14T23:14:16.562Z,4.76
2017-11-14T23:16:44.079Z,4.59
2017-11-14T23:19:11.654Z,4.65
2017-11-14T23:21:39.172Z,4.69
2017-11-14T23:24:06.745Z,4.43
2017-11-14T23:26:34.518Z,4.29
2017-11-14T23:29:02.171Z,4.16
2017-11-14T23:31:29.693Z,4.01
2017-11-14T23:33:57.599Z,3.88
2017-11-14T23:36:25.226Z,3.73
2017-11-14T23:38:52.737Z,3.80
2017-11-14T23:41:20.580Z,4.04
2017-11-14T23:43:48.095Z,3.89
2017-11-14T23:46:15.611Z,3.84
2017-11-14T23:48:43.176Z,3.93
2017-11-14T23:51:10.718Z,3.59
2017-11-14T23:53:38.276Z,3.25
2017-11-14T23:56:05.832Z,3.39
2017-11-14T23:58:33.394Z,3.66
